Airfield :
LOGIN :

Register | Disclaimer

   EN    FR    IT 

 










Legend :    VFR   Marginal VFR   IFR   Intensive IFR   Very Intensive IFR
Visi :
Ceiling :
>= 8 km
>= 3000ft
5 to 8 km
1000 to 3000 ft
1500m to 5 km
500 to 1000 ft
800 to 1500m
200 to 500 ft
< 800m
< 200 ft
Symbols :   Thunderstorms  Fog  Heavy snow  Heavy precipitations  Wind > 20 kt
SIGMETs :     Misc.  Thunderstorms  Icing  Turbulence  Mountain Waves  Volcanic Ashes






- Airport Elevation : 38 ft
- IATA code : BOH


EGHH - Bournemouth

CURRENT METAR :
  • 151320Z 05006KT 3500 BR OVC005 19/19 Q1014

EXPIRED METARs :
  • 151250Z 05005KT 360V080 1800 -DZ BR OVC003 19/18 Q1014
  • 151220Z 05006KT 360V080 1800 -DZ BR OVC003 19/18 Q1014
  • 151150Z 05005KT 1400 BR OVC003 19/18 Q1014
  • 151120Z 06005KT 1500 BR OVC003 19/18 Q1014
  • 151050Z 06005KT 1400 BR OVC003 19/18 Q1014

TAF TAF EGHH
Valid from the 15 at 12:00 until the 15 at 21:00 UTC


151105Z 1512/1521 06003KT 1400 BR OVC003
PROB30
TEMPO 1512/1521 VRB15G25KT 3000 +TSRA BKN010CB
BECMG 1515/1518 9999 NSW BKN012
ATIS : +44 1202 364 151
Met : +44 1202 364 158 (TAF)



MET'MAP, your aeronautical weather chart ! - Copyright ORBIFLY December 2007 - Disclaimer

ORBIFLY MET'MAP TEAM :

Programming & Development : Alexandra Zaïnal
Concept & original design : Baudouin d'Aumeries
Assistance for programming : Marc-Olivier Méhu
Technical & hardware support : Manuel Goepfert

Contact : metmap@orbifly.com




SOURCES & CREDITS :

   NOAA